Leetsdale, PA (15056)

6:55 AM EST on February 11, 2016 (GMT -0500)
Ambridge Historic District | | Change Station
CLOSE
Current Station
Personal Weather Station
Location: Ambridge, PA
Elevation: 751 ft
Nearby Weather Stations

Elev 751 ft 40.60 °N, 80.23 °W | Updated 13 seconds ago

Snow
Snow
13.5 °F
Feels Like 14 °F
N
2.9
Wind Variable Wind from SW
Gusts 5.0 mph

Today
High -- | Low -- °F
--% Chance of Precip.
Yesterday
High -- | Low -- °F
Precip. -- in
Pressure 30.11 in
Visibility 9.0 miles
Clouds Few 2400 ft
Scattered Clouds 3200 ft
Overcast 5000 ft
Windchill 14 °F
Dew Point 8 °F
Humidity 80%
Rainfall 0.00 in
Snow Depth Not available.
7:20 AM 5:50 PM
Waxing Crescent, 11% visible
METAR KPIT 111151Z 27008KT 9SM -SN FEW024 SCT032 OVC050 M11/M16 A3002 RMK AO2 SLP196 BINOVC P0000 60000 70003 T11111156 11100 21117 53024
Pressure 30.11 in
Visibility 9.0 miles
Clouds Few 2400 ft
Scattered Clouds 3200 ft
Overcast 5000 ft
Windchill 14 °F
Dew Point 8 °F
Humidity 80%
Rainfall 0.00 in
Snow Depth Not available.
7:20 AM 5:50 PM
Waxing Crescent, 11% visible
METAR KPIT 111151Z 27008KT 9SM -SN FEW024 SCT032 OVC050 M11/M16 A3002 RMK AO2 SLP196 BINOVC P0000 60000 70003 T11111156 11100 21117 53024

10-Day Weather Forecast

Almanac

Astronomy

Feb. 11, 2016 Rise Set
Actual Time
Civil Twilight
Nautical Twilight
Astronomical Twilight
Moon
Length of Visible Light
Length of Day
Tomorrow will be .
, % of the Moon is Illuminated

Today's Extremes

State Highs State Lows

Community

WunderPhotos

Upload Photos

1,892,030 photos uploaded!

WunderBlog® & News

Nearby

Air Quality

  Air Quality AQ Index Pollutant
Not available.

Snow Depth

Station Depth Elevation

Earthquake Activity

City Distance Mag. Time & Date
Minimum magnitude displayed is 2.5.

Coastal Water Temperatures

Place Temperature

Stations

Nearby Weather Stations

Station Location Temp. Windchill Dew Point Humidity Wind Precip. Elev Updated Type
                   

Watches & Warnings

There are currently no watches in effect.